createdAt,value
2022-11-03T00:02:02.578Z,3.42
2022-11-03T00:04:29.629Z,3.33
2022-11-03T00:06:56.912Z,2.88
2022-11-03T00:09:27.245Z,3.22
2022-11-03T00:11:54.511Z,3.25
2022-11-03T00:14:21.422Z,2.35
2022-11-03T00:16:48.724Z,2.25
2022-11-03T00:19:17.423Z,2.53
2022-11-03T00:21:45.292Z,2.50
2022-11-03T00:24:13.224Z,2.38
2022-11-03T00:26:40.447Z,2.00
2022-11-03T00:29:10.611Z,2.25
2022-11-03T00:31:40.158Z,2.38
2022-11-03T00:34:07.819Z,2.28
2022-11-03T00:36:37.387Z,1.98
2022-11-03T00:39:05.459Z,2.17
2022-11-03T00:41:32.713Z,2.03
2022-11-03T00:43:59.769Z,2.20
2022-11-03T00:46:27.588Z,2.13
2022-11-03T00:48:54.564Z,2.00
2022-11-03T00:51:24.883Z,2.58
2022-11-03T00:53:54.154Z,3.25
2022-11-03T00:56:40.930Z,3.20
2022-11-03T00:59:09.557Z,3.40
2022-11-03T01:01:47.469Z,2.70
2022-11-03T01:04:34.937Z,3.08
2022-11-03T01:07:03.254Z,2.63
2022-11-03T01:09:35.884Z,2.22
2022-11-03T01:12:07.947Z,2.25
2022-11-03T01:14:49.828Z,3.20
2022-11-03T01:17:25.182Z,3.80
2022-11-03T01:19:52.798Z,4.03
2022-11-03T01:22:20.665Z,4.25
2022-11-03T01:24:47.719Z,4.15
2022-11-03T01:27:17.393Z,3.90
2022-11-03T01:29:44.636Z,3.17
2022-11-03T01:32:11.852Z,2.05
2022-11-03T01:34:39.284Z,2.35
2022-11-03T01:37:06.907Z,2.15
2022-11-03T01:39:34.003Z,2.20
2022-11-03T01:42:01.078Z,2.00
2022-11-03T01:44:31.208Z,2.13
2022-11-03T01:47:01.678Z,2.40
2022-11-03T01:49:31.129Z,2.25
2022-11-03T01:52:20.341Z,1.83
2022-11-03T01:54:54.661Z,2.08
2022-11-03T01:57:27.344Z,1.60
2022-11-03T01:59:58.472Z,2.17
2022-11-03T02:02:27.667Z,2.72
2022-11-03T02:04:58.272Z,2.20
2022-11-03T02:07:39.341Z,1.80
2022-11-03T02:10:06.868Z,2.88
2022-11-03T02:12:34.881Z,2.13
2022-11-03T02:15:15.260Z,1.98
2022-11-03T02:17:44.585Z,2.70
2022-11-03T02:20:21.320Z,2.22
2022-11-03T02:22:48.169Z,2.47
2022-11-03T02:25:43.060Z,3.00
2022-11-03T02:28:12.147Z,2.85
2022-11-03T02:31:02.995Z,2.28
2022-11-03T02:33:29.961Z,2.40
2022-11-03T02:36:19.977Z,2.97
2022-11-03T02:39:09.337Z,2.80
2022-11-03T02:41:39.114Z,4.05
2022-11-03T02:44:12.239Z,3.17
2022-11-03T02:46:41.922Z,3.10
2022-11-03T02:49:08.910Z,2.65
2022-11-03T02:51:35.934Z,2.53
2022-11-03T02:54:21.950Z,2.28
2022-11-03T02:57:01.226Z,2.40
2022-11-03T02:59:33.851Z,2.22
2022-11-03T03:02:09.449Z,2.33
2022-11-03T03:04:42.901Z,2.30
2022-11-03T03:07:34.262Z,1.83
2022-11-03T03:10:16.772Z,2.55
2022-11-03T03:12:49.276Z,2.58
2022-11-03T03:15:18.673Z,4.40
2022-11-03T03:17:52.045Z,9.25
2022-11-03T03:20:31.782Z,5.95
2022-11-03T03:23:12.891Z,3.60
2022-11-03T03:25:49.396Z,3.45
2022-11-03T03:28:25.088Z,1.63
2022-11-03T03:30:55.058Z,1.70
2022-11-03T03:33:23.005Z,2.25
2022-11-03T03:35:53.034Z,1.42
2022-11-03T03:38:27.912Z,2.78
2022-11-03T03:43:26.732Z,19.13
2022-11-03T03:45:58.312Z,16.17
2022-11-03T03:48:25.392Z,9.45
2022-11-03T03:50:53.169Z,7.13
2022-11-03T03:53:20.390Z,5.55
2022-11-03T03:55:51.109Z,4.68
2022-11-03T03:58:18.620Z,2.80
2022-11-03T04:00:45.820Z,2.08
2022-11-03T04:03:21.899Z,2.38
2022-11-03T04:05:49.450Z,2.63
2022-11-03T04:08:17.536Z,1.95
2022-11-03T04:11:04.187Z,2.20
2022-11-03T04:13:50.328Z,5.18
2022-11-03T04:16:35.968Z,6.55
2022-11-03T04:19:21.707Z,24.77
2022-11-03T04:22:07.601Z,38.28
2022-11-03T04:24:34.604Z,91.75
2022-11-03T04:27:15.887Z,42.42
2022-11-03T04:29:42.986Z,13.60
2022-11-03T04:32:16.203Z,8.10
2022-11-03T04:34:43.366Z,5.05
2022-11-03T04:37:13.489Z,5.22
2022-11-03T04:39:40.876Z,6.30
2022-11-03T04:42:21.887Z,6.72
2022-11-03T04:44:49.454Z,3.00
2022-11-03T04:47:17.735Z,3.72
2022-11-03T04:49:48.616Z,58.78
2022-11-03T04:52:22.317Z,47.22
2022-11-03T04:54:53.607Z,73.85
2022-11-03T04:57:20.608Z,81.75
2022-11-03T04:59:50.584Z,30.35
2022-11-03T05:02:21.144Z,8.25
2022-11-03T05:04:48.079Z,4.88
2022-11-03T05:07:35.008Z,3.67
2022-11-03T05:10:04.637Z,5.78
2022-11-03T05:12:31.569Z,5.43
2022-11-03T05:14:59.109Z,4.85
2022-11-03T05:17:28.490Z,4.47
2022-11-03T05:20:00.308Z,4.13
2022-11-03T05:22:34.123Z,3.00
2022-11-03T05:25:04.022Z,2.80
2022-11-03T05:27:30.997Z,2.97
2022-11-03T05:30:01.033Z,2.58
2022-11-03T05:32:33.092Z,3.55
2022-11-03T05:35:00.501Z,3.15
2022-11-03T05:37:35.396Z,2.47
2022-11-03T05:42:36.525Z,3.00
2022-11-03T05:45:37.335Z,2.45
2022-11-03T05:48:14.059Z,2.67
2022-11-03T05:50:42.371Z,2.50
2022-11-03T05:53:29.864Z,3.03
2022-11-03T05:56:02.491Z,2.70
2022-11-03T05:58:35.211Z,2.65
2022-11-03T06:01:05.287Z,2.55
2022-11-03T06:03:36.677Z,3.30
2022-11-03T06:06:15.535Z,2.65
2022-11-03T06:08:46.013Z,2.50
2022-11-03T06:11:26.120Z,3.47
2022-11-03T06:13:53.227Z,2.63
2022-11-03T06:16:59.959Z,3.08
2022-11-03T06:19:34.792Z,3.00
2022-11-03T06:22:26.395Z,2.92
2022-11-03T06:24:59.362Z,2.45
2022-11-03T06:27:31.042Z,3.05
2022-11-03T06:30:02.033Z,4.70
2022-11-03T06:32:29.557Z,4.20
2022-11-03T06:34:58.656Z,3.63
2022-11-03T06:37:32.834Z,4.80
2022-11-03T06:40:11.973Z,4.22
2022-11-03T06:42:40.135Z,3.70
2022-11-03T06:45:20.439Z,3.42
2022-11-03T06:47:47.739Z,4.32
2022-11-03T06:50:32.570Z,4.18
2022-11-03T06:53:04.500Z,3.67
2022-11-03T06:55:34.627Z,4.50
2022-11-03T06:58:28.610Z,3.85
2022-11-03T07:01:03.556Z,7.85
2022-11-03T07:03:35.419Z,5.45
2022-11-03T07:06:11.362Z,4.15
2022-11-03T07:08:45.532Z,7.50
2022-11-03T07:11:20.015Z,5.53
2022-11-03T07:13:49.618Z,7.18
2022-11-03T07:16:36.961Z,5.68
2022-11-03T07:19:06.053Z,5.78
2022-11-03T07:21:46.475Z,4.20
2022-11-03T07:24:43.567Z,4.35
2022-11-03T07:27:27.009Z,3.25
2022-11-03T07:29:58.881Z,6.03
2022-11-03T07:32:33.243Z,4.25
2022-11-03T07:35:05.816Z,3.03
2022-11-03T07:37:32.780Z,2.35
2022-11-03T07:39:59.662Z,2.22
2022-11-03T07:42:27.638Z,2.67
2022-11-03T07:45:00.048Z,3.95
2022-11-03T07:47:29.149Z,3.03
2022-11-03T07:49:56.678Z,3.22
2022-11-03T07:52:26.039Z,2.53
2022-11-03T07:54:57.244Z,3.17
2022-11-03T07:57:32.288Z,2.85
2022-11-03T08:00:09.094Z,2.28
2022-11-03T08:02:51.651Z,2.83
2022-11-03T08:07:46.352Z,2.08
2022-11-03T08:10:13.898Z,2.40
2022-11-03T08:12:40.792Z,3.40
2022-11-03T08:15:08.276Z,2.10
2022-11-03T08:17:35.231Z,2.63
2022-11-03T08:20:02.164Z,2.80
2022-11-03T08:22:30.078Z,2.22
2022-11-03T08:24:56.944Z,1.88
2022-11-03T08:27:23.885Z,2.83
2022-11-03T08:29:50.769Z,2.72
2022-11-03T08:32:17.665Z,2.10
2022-11-03T08:34:44.553Z,2.40
2022-11-03T08:37:11.414Z,1.98
2022-11-03T08:39:38.269Z,2.10
2022-11-03T08:42:05.218Z,2.10
2022-11-03T08:44:32.088Z,2.35
2022-11-03T08:46:58.965Z,2.08
2022-11-03T08:49:25.925Z,2.22
2022-11-03T08:51:53.233Z,2.13
2022-11-03T08:54:20.073Z,2.20
2022-11-03T08:56:49.304Z,2.40
2022-11-03T08:59:18.212Z,1.88
2022-11-03T09:01:45.226Z,3.05
2022-11-03T09:04:12.202Z,2.13
2022-11-03T09:06:39.388Z,2.47
2022-11-03T09:11:53.226Z,2.78
2022-11-03T09:14:20.171Z,2.47
2022-11-03T09:16:47.038Z,2.35
2022-11-03T09:19:13.965Z,2.35
2022-11-03T09:21:40.835Z,2.83
2022-11-03T09:24:08.029Z,2.17
2022-11-03T09:26:35.004Z,1.95
2022-11-03T09:29:01.903Z,3.00
2022-11-03T09:31:29.394Z,2.25
2022-11-03T09:33:56.373Z,2.70
2022-11-03T09:36:23.235Z,1.85
2022-11-03T09:38:50.145Z,2.25
2022-11-03T09:41:27.581Z,2.42
2022-11-03T09:44:07.175Z,1.73
2022-11-03T09:46:35.400Z,9.20
2022-11-03T09:49:04.859Z,3.15
2022-11-03T09:51:32.832Z,2.50
2022-11-03T09:54:04.647Z,2.45
2022-11-03T09:56:32.488Z,2.25
2022-11-03T09:59:00.134Z,3.40
2022-11-03T10:01:27.682Z,2.83
2022-11-03T10:03:59.713Z,2.75
2022-11-03T10:06:26.659Z,2.70
2022-11-03T10:08:53.579Z,2.30
2022-11-03T10:11:20.437Z,3.05
2022-11-03T10:13:53.039Z,3.45
2022-11-03T10:16:23.285Z,8.05
2022-11-03T10:18:50.730Z,2.85
2022-11-03T10:21:17.606Z,3.20
2022-11-03T10:23:45.291Z,2.67
2022-11-03T10:26:18.798Z,2.55
2022-11-03T10:29:05.654Z,3.53
2022-11-03T10:31:34.029Z,3.15
2022-11-03T10:34:00.986Z,2.83
2022-11-03T10:36:30.367Z,2.50
2022-11-03T10:38:58.162Z,2.40
2022-11-03T10:41:28.649Z,3.15
2022-11-03T10:44:31.431Z,3.03
2022-11-03T10:47:07.024Z,3.25
2022-11-03T10:49:43.243Z,3.72
2022-11-03T10:52:21.140Z,2.95
2022-11-03T10:54:49.879Z,3.22
2022-11-03T10:57:18.080Z,3.03
2022-11-03T10:59:47.235Z,3.30
2022-11-03T11:02:19.261Z,2.88
2022-11-03T11:04:48.164Z,2.67
2022-11-03T11:07:32.764Z,4.75
2022-11-03T11:10:14.098Z,3.35
2022-11-03T11:13:04.210Z,3.97
2022-11-03T11:15:39.303Z,8.52
2022-11-03T11:20:43.999Z,6.07
2022-11-03T11:23:29.204Z,2.92
2022-11-03T11:28:46.913Z,2.63
2022-11-03T11:31:22.763Z,2.72
2022-11-03T11:33:50.120Z,3.08
2022-11-03T11:36:23.112Z,2.97
2022-11-03T11:38:52.362Z,2.90
2022-11-03T11:41:20.951Z,2.13
2022-11-03T11:43:47.952Z,2.78
2022-11-03T11:46:23.885Z,3.03
2022-11-03T11:49:15.527Z,2.80
2022-11-03T11:51:42.715Z,2.58
2022-11-03T11:54:18.577Z,2.95
2022-11-03T11:56:48.623Z,2.40
2022-11-03T11:59:25.329Z,3.03
2022-11-03T12:01:56.858Z,2.58
2022-11-03T12:04:33.286Z,2.28
2022-11-03T12:07:00.248Z,4.07
2022-11-03T12:09:28.346Z,5.47
2022-11-03T12:12:07.998Z,3.35
2022-11-03T12:14:37.886Z,3.00
2022-11-03T12:17:17.116Z,3.38
2022-11-03T12:19:45.087Z,3.17
2022-11-03T12:22:24.310Z,2.78
2022-11-03T12:25:02.205Z,2.78
2022-11-03T12:27:29.291Z,3.22
2022-11-03T12:29:58.233Z,3.00
2022-11-03T12:32:33.835Z,2.83
2022-11-03T12:35:06.437Z,3.00
2022-11-03T12:37:33.437Z,3.38
2022-11-03T12:40:00.429Z,2.80
2022-11-03T12:42:27.448Z,2.78
2022-11-03T12:44:54.368Z,3.22
2022-11-03T12:47:21.478Z,3.78
2022-11-03T12:49:48.650Z,2.70
2022-11-03T12:52:16.199Z,3.00
2022-11-03T12:54:43.106Z,3.85
2022-11-03T12:57:10.069Z,13.25
2022-11-03T12:59:37.059Z,42.00
2022-11-03T13:02:04.440Z,5.35
2022-11-03T13:04:31.668Z,5.53
2022-11-03T13:06:58.836Z,5.50
2022-11-03T13:09:26.180Z,4.88
2022-11-03T13:12:11.824Z,7.68
2022-11-03T13:14:38.770Z,4.85
2022-11-03T13:17:05.649Z,3.38
2022-11-03T13:19:32.555Z,3.50
2022-11-03T13:22:00.070Z,3.17
2022-11-03T13:24:26.975Z,2.50
2022-11-03T13:26:53.881Z,3.13
2022-11-03T13:29:20.864Z,2.97
2022-11-03T13:31:47.880Z,3.35
2022-11-03T13:34:14.723Z,3.00
2022-11-03T13:36:41.614Z,3.20
2022-11-03T13:39:08.494Z,2.75
2022-11-03T13:41:37.974Z,3.53
2022-11-03T13:44:04.920Z,2.85
2022-11-03T13:46:31.925Z,2.72
2022-11-03T13:51:45.778Z,2.53
2022-11-03T13:59:46.522Z,2.70
2022-11-03T14:05:01.420Z,3.15
2022-11-03T14:07:28.949Z,3.30
2022-11-03T14:09:58.017Z,3.13
2022-11-03T14:12:30.849Z,3.05
2022-11-03T14:15:02.092Z,2.83
2022-11-03T14:17:29.071Z,4.13
2022-11-03T14:20:00.744Z,3.47
2022-11-03T14:22:30.736Z,3.28
2022-11-03T14:24:57.762Z,3.60
2022-11-03T14:27:25.158Z,4.07
2022-11-03T14:29:52.280Z,4.28
2022-11-03T14:32:20.056Z,3.70
2022-11-03T14:34:47.965Z,5.05
2022-11-03T14:37:15.291Z,3.60
2022-11-03T14:39:42.448Z,3.78
2022-11-03T14:42:16.010Z,3.85
2022-11-03T14:44:46.956Z,3.92
2022-11-03T14:47:17.955Z,3.63
2022-11-03T14:49:46.588Z,3.17
2022-11-03T14:52:14.292Z,4.00
2022-11-03T14:54:44.529Z,4.13
2022-11-03T14:57:11.682Z,4.93
2022-11-03T14:59:38.670Z,4.18
2022-11-03T15:02:06.482Z,7.80
2022-11-03T15:04:33.910Z,4.63
2022-11-03T15:07:00.963Z,3.45
2022-11-03T15:09:27.902Z,4.70
2022-11-03T15:11:55.071Z,4.95
2022-11-03T15:14:22.010Z,3.95
2022-11-03T15:16:49.029Z,3.63
2022-11-03T15:19:16.181Z,5.18
2022-11-03T15:21:43.272Z,4.93
2022-11-03T15:26:57.065Z,21.38
2022-11-03T15:29:24.214Z,8.07
2022-11-03T15:31:51.904Z,9.02
2022-11-03T15:34:18.916Z,6.32
2022-11-03T15:36:45.869Z,4.82
2022-11-03T15:39:13.554Z,5.00
2022-11-03T15:41:40.746Z,3.78
2022-11-03T15:44:07.635Z,6.07
2022-11-03T15:46:35.802Z,4.97
2022-11-03T15:49:03.338Z,5.50
2022-11-03T15:51:30.256Z,3.63
2022-11-03T15:53:59.088Z,4.88
2022-11-03T15:56:27.508Z,5.13
2022-11-03T15:58:54.512Z,4.93
2022-11-03T16:01:21.575Z,4.88
2022-11-03T16:03:48.600Z,5.38
2022-11-03T16:06:15.648Z,5.57
2022-11-03T16:08:42.547Z,4.32
2022-11-03T16:11:09.470Z,4.53
2022-11-03T16:13:36.364Z,4.05
2022-11-03T16:16:03.657Z,3.65
2022-11-03T16:18:30.603Z,4.35
2022-11-03T16:20:57.506Z,3.38
2022-11-03T16:23:24.507Z,4.18
2022-11-03T16:25:51.430Z,4.05
2022-11-03T16:28:18.263Z,3.05
2022-11-03T16:30:49.718Z,26.58
2022-11-03T16:33:19.852Z,8.02
2022-11-03T16:35:46.725Z,4.85
2022-11-03T16:38:15.502Z,5.20
2022-11-03T16:40:43.146Z,5.07
2022-11-03T16:43:10.199Z,4.00
2022-11-03T16:45:38.075Z,18.75
2022-11-03T16:48:07.046Z,12.63
2022-11-03T16:50:34.991Z,5.15
2022-11-03T16:53:02.150Z,5.28
2022-11-03T16:55:29.012Z,5.43
2022-11-03T16:57:56.512Z,5.93
2022-11-03T17:00:24.634Z,4.25
2022-11-03T17:02:53.157Z,5.45
2022-11-03T17:05:21.962Z,4.30
2022-11-03T17:07:53.596Z,4.25
2022-11-03T17:10:22.108Z,5.35
2022-11-03T17:12:50.265Z,4.25
2022-11-03T17:15:17.833Z,4.13
2022-11-03T17:17:45.194Z,4.68
2022-11-03T17:20:13.214Z,4.20
2022-11-03T17:22:40.484Z,3.80
2022-11-03T17:25:09.655Z,4.20
2022-11-03T17:27:46.773Z,4.18
2022-11-03T17:30:24.960Z,3.78
2022-11-03T17:32:55.821Z,4.90
2022-11-03T17:35:42.548Z,10.13
2022-11-03T17:38:28.405Z,16.08
2022-11-03T17:40:55.342Z,8.68
2022-11-03T17:43:27.399Z,7.18
2022-11-03T17:45:54.526Z,4.15
2022-11-03T17:48:23.376Z,3.85
2022-11-03T17:50:53.746Z,3.42
2022-11-03T17:53:41.775Z,4.82
2022-11-03T17:56:29.553Z,3.80
2022-11-03T17:58:57.837Z,4.82
2022-11-03T18:01:27.667Z,5.35
2022-11-03T18:03:55.125Z,5.20
2022-11-03T18:06:22.456Z,4.47
2022-11-03T18:08:49.994Z,5.32
2022-11-03T18:11:47.361Z,5.05
2022-11-03T18:14:14.767Z,4.18
2022-11-03T18:16:41.884Z,6.75
2022-11-03T18:19:13.452Z,5.65
2022-11-03T18:21:41.117Z,5.38
2022-11-03T18:24:19.716Z,4.72
2022-11-03T18:26:46.586Z,5.40
2022-11-03T18:29:13.478Z,5.00
2022-11-03T18:31:44.221Z,3.78
2022-11-03T18:34:31.486Z,4.90
2022-11-03T18:36:58.447Z,4.43
2022-11-03T18:39:27.982Z,4.10
2022-11-03T18:41:55.697Z,5.15
2022-11-03T18:44:28.462Z,4.45
2022-11-03T18:46:56.255Z,4.20
2022-11-03T18:49:24.983Z,4.18
2022-11-03T18:52:02.107Z,4.57
2022-11-03T18:54:32.295Z,4.15
2022-11-03T18:56:59.405Z,5.00
2022-11-03T18:59:29.363Z,4.45
2022-11-03T19:01:56.680Z,5.50
2022-11-03T19:04:24.171Z,4.45
2022-11-03T19:06:52.951Z,4.15
2022-11-03T19:09:26.150Z,4.25
2022-11-03T19:11:56.502Z,4.57
2022-11-03T19:14:28.801Z,4.53
2022-11-03T19:19:47.387Z,4.88
2022-11-03T19:22:22.253Z,25.38
2022-11-03T19:27:25.687Z,16.60
2022-11-03T19:29:53.637Z,8.57
2022-11-03T19:32:33.598Z,7.00
2022-11-03T19:35:04.950Z,6.50
2022-11-03T19:37:35.708Z,5.38
2022-11-03T19:40:09.020Z,6.18
2022-11-03T19:42:39.771Z,5.00
2022-11-03T19:45:29.130Z,7.18
2022-11-03T19:48:23.793Z,5.55
2022-11-03T19:50:44.724Z,5.35
2022-11-03T19:53:19.087Z,9.07
2022-11-03T19:55:46.439Z,5.80
2022-11-03T19:58:27.438Z,6.03
2022-11-03T20:00:55.408Z,5.95
2022-11-03T20:03:23.472Z,6.03
2022-11-03T20:05:56.668Z,5.80
2022-11-03T20:08:26.122Z,4.90
2022-11-03T20:10:53.578Z,4.80
2022-11-03T20:13:23.590Z,5.30
2022-11-03T20:15:53.575Z,4.65
2022-11-03T20:18:22.839Z,5.22
2022-11-03T20:20:49.869Z,4.97
2022-11-03T20:23:31.219Z,4.82
2022-11-03T20:25:58.618Z,5.07
2022-11-03T20:28:28.575Z,4.60
2022-11-03T20:30:56.439Z,5.68
2022-11-03T20:33:24.907Z,4.88
2022-11-03T20:35:53.558Z,5.75
2022-11-03T20:38:21.924Z,5.43
2022-11-03T20:40:55.742Z,5.13
2022-11-03T20:43:33.297Z,5.70
2022-11-03T20:46:03.369Z,5.75
2022-11-03T20:48:30.228Z,6.18
2022-11-03T20:50:57.505Z,6.47
2022-11-03T20:53:25.762Z,6.30
2022-11-03T20:55:53.593Z,6.53
2022-11-03T20:58:20.636Z,7.13
2022-11-03T21:00:48.778Z,7.03
2022-11-03T21:03:57.716Z,9.13
2022-11-03T21:06:18.799Z,8.65
2022-11-03T21:08:47.465Z,8.07
2022-11-03T21:11:28.542Z,10.48
2022-11-03T21:14:01.381Z,6.40
2022-11-03T21:16:48.522Z,6.40
2022-11-03T21:19:42.754Z,6.95
2022-11-03T21:22:56.650Z,7.68
2022-11-03T21:25:24.825Z,9.63
2022-11-03T21:27:54.046Z,16.40
2022-11-03T21:30:22.544Z,14.65
2022-11-03T21:32:49.500Z,16.77
2022-11-03T21:35:19.341Z,12.30
2022-11-03T21:37:47.244Z,13.45
2022-11-03T21:40:14.593Z,25.30
2022-11-03T21:43:00.219Z,20.05
2022-11-03T21:45:27.455Z,20.63
2022-11-03T21:48:14.704Z,18.88
2022-11-03T21:50:43.059Z,17.85
2022-11-03T21:53:10.908Z,27.15
2022-11-03T21:55:38.371Z,24.77
2022-11-03T21:58:05.316Z,26.65
2022-11-03T22:00:32.570Z,32.72
2022-11-03T22:03:00.823Z,44.65
2022-11-03T22:05:28.282Z,17.63
2022-11-03T22:07:55.474Z,9.48
2022-11-03T22:10:22.786Z,7.00
2022-11-03T22:12:49.867Z,7.90
2022-11-03T22:15:35.415Z,8.20
2022-11-03T22:18:06.504Z,6.70
2022-11-03T22:20:54.274Z,6.10
2022-11-03T22:23:40.063Z,5.05
2022-11-03T22:26:29.680Z,5.53
2022-11-03T22:29:17.060Z,5.10
2022-11-03T22:31:44.405Z,4.95
2022-11-03T22:34:29.885Z,5.50
2022-11-03T22:36:56.766Z,5.35
2022-11-03T22:39:42.484Z,5.88
2022-11-03T22:42:30.165Z,4.80
2022-11-03T22:45:16.111Z,4.55
2022-11-03T22:47:43.053Z,5.05
2022-11-03T22:50:10.206Z,5.55
2022-11-03T22:52:37.147Z,5.80
2022-11-03T22:55:04.904Z,6.28
2022-11-03T22:57:31.805Z,5.20
2022-11-03T22:59:58.809Z,4.32
2022-11-03T23:02:25.814Z,5.15
2022-11-03T23:04:52.764Z,5.82
2022-11-03T23:07:19.602Z,5.18
2022-11-03T23:09:46.553Z,5.05
2022-11-03T23:12:13.572Z,4.97
2022-11-03T23:14:59.147Z,4.18
2022-11-03T23:17:45.958Z,5.38
2022-11-03T23:20:32.653Z,4.22
2022-11-03T23:22:59.552Z,5.43
2022-11-03T23:25:26.416Z,5.32
2022-11-03T23:27:53.365Z,5.38
2022-11-03T23:30:20.289Z,5.05
2022-11-03T23:32:47.137Z,6.35
2022-11-03T23:35:14.768Z,4.50
2022-11-03T23:37:41.718Z,4.63
2022-11-03T23:40:09.150Z,4.45
2022-11-03T23:42:36.115Z,5.40
2022-11-03T23:45:21.983Z,5.15
2022-11-03T23:48:07.803Z,4.38
2022-11-03T23:50:34.875Z,4.75
2022-11-03T23:53:01.746Z,4.90
2022-11-03T23:55:48.996Z,4.45
2022-11-03T23:58:18.932Z,4.95
